createdAt,value
2023-04-03T00:00:40.000Z,70.5
2023-04-03T00:01:56.000Z,70.5
2023-04-03T00:03:12.000Z,70.7
2023-04-03T00:04:29.000Z,70.9
2023-04-03T00:05:45.000Z,70.7
2023-04-03T00:07:00.000Z,70.5
2023-04-03T00:08:15.000Z,70.1
2023-04-03T00:09:32.471Z,70.4
2023-04-03T00:10:47.000Z,70.6
2023-04-03T00:12:03.087Z,70.7
2023-04-03T00:13:19.000Z,70.3
2023-04-03T00:14:35.000Z,70.1
2023-04-03T00:15:51.000Z,70.2
2023-04-03T00:17:07.000Z,70
2023-04-03T00:18:24.000Z,70.2
2023-04-03T00:19:40.000Z,70.1
2023-04-03T00:20:57.082Z,70.1
2023-04-03T00:22:13.000Z,70
2023-04-03T00:23:29.000Z,70.2
2023-04-03T00:24:45.000Z,70.4
2023-04-03T00:26:02.000Z,70
2023-04-03T00:27:18.000Z,70.4
2023-04-03T00:28:33.000Z,70.3
2023-04-03T00:29:49.000Z,69.9
2023-04-03T00:31:06.000Z,70
2023-04-03T00:32:22.710Z,69.8
2023-04-03T00:33:38.963Z,69.8
2023-04-03T00:34:55.000Z,70.2
2023-04-03T00:36:11.000Z,70
2023-04-03T00:37:27.000Z,70
2023-04-03T00:38:43.000Z,69.6
2023-04-03T00:40:00.000Z,69.6
2023-04-03T00:41:15.000Z,69.9
2023-04-03T00:42:30.000Z,70.4
2023-04-03T00:43:46.000Z,70
2023-04-03T00:45:01.000Z,69.8
2023-04-03T00:46:17.000Z,70
2023-04-03T00:47:33.000Z,70
2023-04-03T00:48:50.000Z,70
2023-04-03T00:50:06.000Z,70.3
2023-04-03T00:51:22.000Z,69.9
2023-04-03T00:52:39.370Z,69.8
2023-04-03T00:53:55.000Z,70
2023-04-03T00:55:11.000Z,70.4
2023-04-03T00:56:27.000Z,70.4
2023-04-03T00:57:44.000Z,70.4
2023-04-03T00:59:00.000Z,70.3
2023-04-03T01:00:16.000Z,70.3
2023-04-03T01:01:32.000Z,69.8
2023-04-03T01:02:48.000Z,70
2023-04-03T01:04:04.000Z,70.4
2023-04-03T01:05:21.000Z,71
2023-04-03T01:06:37.000Z,71.1
2023-04-03T01:07:53.000Z,70.8
2023-04-03T01:09:09.000Z,70.7
2023-04-03T01:10:25.000Z,70.9
2023-04-03T01:11:40.766Z,70.4
2023-04-03T01:12:56.000Z,70.5
2023-04-03T01:14:12.000Z,70.6
2023-04-03T01:15:27.000Z,70.7
2023-04-03T01:16:43.000Z,70.4
2023-04-03T01:17:59.000Z,70.7
2023-04-03T01:19:16.000Z,70.6
2023-04-03T01:20:32.000Z,70.8
2023-04-03T01:21:48.000Z,71
2023-04-03T01:23:05.000Z,71.4
2023-04-03T01:24:21.000Z,71.6
2023-04-03T01:25:37.000Z,71.4
2023-04-03T01:26:54.000Z,71.5
2023-04-03T01:28:10.000Z,71.5
2023-04-03T01:29:26.000Z,71.5
2023-04-03T01:30:42.000Z,71.4
2023-04-03T01:31:58.000Z,71.5
2023-04-03T01:33:14.000Z,71.1
2023-04-03T01:34:30.000Z,71.4
2023-04-03T01:35:47.000Z,71.4
2023-04-03T01:37:03.000Z,71.2
2023-04-03T01:38:19.000Z,71.2
2023-04-03T01:39:35.000Z,71.3
2023-04-03T01:40:52.000Z,71.3
2023-04-03T01:42:08.769Z,71.4
2023-04-03T01:43:24.000Z,71.7
2023-04-03T01:44:41.000Z,71.8
2023-04-03T01:45:57.000Z,71.7
2023-04-03T01:47:13.000Z,71.9
2023-04-03T01:48:28.000Z,72.3
2023-04-03T01:49:45.479Z,72.4
2023-04-03T01:51:01.000Z,71.8
2023-04-03T01:52:17.000Z,72.1
2023-04-03T01:53:34.000Z,72.3
2023-04-03T01:54:50.000Z,72.1
2023-04-03T01:56:06.000Z,72.1
2023-04-03T01:57:22.000Z,72.3
2023-04-03T01:58:39.000Z,72.5
2023-04-03T01:59:55.763Z,72.5
2023-04-03T02:01:11.000Z,72.7
2023-04-03T02:02:28.338Z,72.9
2023-04-03T02:03:44.000Z,72.7
2023-04-03T02:04:59.000Z,72.6
2023-04-03T02:06:15.000Z,72.5
2023-04-03T02:07:32.000Z,72.8
2023-04-03T02:08:48.000Z,72.8
2023-04-03T02:10:04.000Z,72.4
2023-04-03T02:11:21.000Z,72.5
2023-04-03T02:12:36.000Z,72.4
2023-04-03T02:13:51.000Z,72.7
2023-04-03T02:15:07.293Z,72.6
2023-04-03T02:16:22.000Z,72.5
2023-04-03T02:17:38.894Z,72.5
2023-04-03T02:18:54.000Z,72.9
2023-04-03T02:20:11.000Z,72.6
2023-04-03T02:21:27.000Z,72.8
2023-04-03T02:22:43.000Z,72.7
2023-04-03T02:24:00.000Z,72.8
2023-04-03T02:25:16.000Z,73.3
2023-04-03T02:26:32.000Z,73.3
2023-04-03T02:27:48.000Z,73.3
2023-04-03T02:29:05.000Z,73.5
2023-04-03T02:30:21.000Z,73.2
2023-04-03T02:31:37.000Z,73.3
2023-04-03T02:32:53.000Z,73.5
2023-04-03T02:34:09.000Z,73.6
2023-04-03T02:35:25.000Z,73.7
2023-04-03T02:36:42.228Z,74
2023-04-03T02:37:58.000Z,74.1
2023-04-03T02:39:14.000Z,74.1
2023-04-03T02:40:31.096Z,74.1
2023-04-03T02:41:47.000Z,74.1
2023-04-03T02:43:02.000Z,74.1
2023-04-03T02:44:17.000Z,74.1
2023-04-03T02:45:33.000Z,73.7
2023-04-03T02:46:48.000Z,73.9
2023-04-03T02:48:04.000Z,74
2023-04-03T02:49:20.000Z,73.8
2023-04-03T02:50:37.000Z,73.9
2023-04-03T02:51:53.000Z,74.2
2023-04-03T02:53:09.000Z,74.2
2023-04-03T02:54:26.000Z,73.8
2023-04-03T02:55:42.606Z,74.3
2023-04-03T02:56:58.917Z,74.3
2023-04-03T02:58:14.000Z,74
2023-04-03T02:59:31.000Z,74.2
2023-04-03T03:00:47.000Z,74.2
2023-04-03T03:02:03.000Z,74.4
2023-04-03T03:03:19.000Z,74.3
2023-04-03T03:04:35.000Z,74.3
2023-04-03T03:05:51.939Z,74.3
2023-04-03T03:07:07.000Z,74.6
2023-04-03T03:08:24.000Z,74.8
2023-04-03T03:09:40.000Z,74.6
2023-04-03T03:10:56.000Z,74.9
2023-04-03T03:12:12.506Z,74.9
2023-04-03T03:13:27.000Z,75
2023-04-03T03:14:43.000Z,75.2
2023-04-03T03:15:59.000Z,75.3
2023-04-03T03:17:14.000Z,75.5
2023-04-03T03:18:30.899Z,75.8
2023-04-03T03:19:46.000Z,76
2023-04-03T03:21:03.000Z,76
2023-04-03T03:22:19.000Z,75.8
2023-04-03T03:23:35.000Z,75.7
2023-04-03T03:24:52.000Z,75.6
2023-04-03T03:26:08.000Z,75.8
2023-04-03T03:27:24.000Z,76.1
2023-04-03T03:28:40.000Z,75.7
2023-04-03T03:29:57.000Z,75.4
2023-04-03T03:31:13.968Z,75.6
2023-04-03T03:32:29.000Z,75.8
2023-04-03T03:33:45.000Z,76.2
2023-04-03T03:35:01.000Z,75.7
2023-04-03T03:36:17.000Z,75.8
2023-04-03T03:38:50.000Z,75.8
2023-04-03T03:40:05.000Z,76
2023-04-03T03:41:21.000Z,76.2
2023-04-03T03:42:38.000Z,76.4
2023-04-03T03:45:09.000Z,76.8
2023-04-03T03:46:25.000Z,76.5
2023-04-03T03:47:40.000Z,76.2
2023-04-03T03:48:56.000Z,76.3
2023-04-03T03:50:12.238Z,76
2023-04-03T03:51:27.000Z,76
2023-04-03T03:52:43.000Z,76.3
2023-04-03T03:53:59.000Z,76.6
2023-04-03T03:55:16.000Z,76.7
2023-04-03T03:56:32.000Z,76.6
2023-04-03T03:57:48.000Z,76.7
2023-04-03T03:59:05.000Z,76.9
2023-04-03T04:00:21.000Z,76.8
2023-04-03T04:01:37.000Z,76.4
2023-04-03T04:02:53.000Z,76.4
2023-04-03T04:04:10.000Z,76.5
2023-04-03T04:05:26.000Z,76.7
2023-04-03T04:06:42.000Z,76.5
2023-04-03T04:07:58.285Z,76.5
2023-04-03T04:09:14.000Z,76.4
2023-04-03T04:10:30.000Z,76.6
2023-04-03T04:11:46.000Z,76.8
2023-04-03T04:13:03.000Z,77.2
2023-04-03T04:14:19.000Z,77.4
2023-04-03T04:15:35.000Z,77.4
2023-04-03T04:16:52.291Z,77.5
2023-04-03T04:18:08.000Z,77.4
2023-04-03T04:19:24.000Z,77.2
2023-04-03T04:20:40.000Z,77.4
2023-04-03T04:21:57.000Z,77.5
2023-04-03T04:23:13.000Z,77.7
2023-04-03T04:24:28.000Z,77.5
2023-04-03T04:25:45.000Z,77.5
2023-04-03T04:27:01.000Z,77.5
2023-04-03T04:28:17.769Z,77.7
2023-04-03T04:29:33.000Z,78
2023-04-03T04:30:50.000Z,78.3
2023-04-03T04:32:06.000Z,78.2
2023-04-03T04:33:22.806Z,78.1
2023-04-03T04:34:39.063Z,78
2023-04-03T04:35:55.000Z,78.1
2023-04-03T04:37:11.526Z,78.2
2023-04-03T04:38:27.000Z,78.3
2023-04-03T04:39:43.000Z,78.3
2023-04-03T04:40:58.000Z,78.3
2023-04-03T04:42:15.483Z,78.4
2023-04-03T04:43:31.000Z,78.1
2023-04-03T04:44:47.000Z,78
2023-04-03T04:46:03.000Z,78.3
2023-04-03T04:47:20.000Z,77.9
2023-04-03T04:48:36.000Z,77.6
2023-04-03T04:49:52.000Z,77.8
2023-04-03T04:51:09.130Z,77.8
2023-04-03T04:52:25.000Z,78.1
2023-04-03T04:53:41.000Z,78.4
2023-04-03T04:54:57.000Z,78.3
2023-04-03T04:56:14.086Z,78.4
2023-04-03T04:57:29.000Z,78.6
2023-04-03T04:58:45.000Z,78.3
2023-04-03T05:00:01.753Z,78.6
2023-04-03T05:01:17.000Z,78.7
2023-04-03T05:02:34.250Z,78.6
2023-04-03T05:03:50.000Z,78.5
2023-04-03T05:05:06.000Z,78.4
2023-04-03T05:06:22.000Z,78.4
2023-04-03T05:07:39.176Z,78.3
2023-04-03T05:08:55.415Z,78.7
2023-04-03T05:10:11.644Z,78.7
2023-04-03T05:11:27.887Z,78.7
2023-04-03T05:12:43.000Z,78.3
2023-04-03T05:13:59.000Z,78.7
2023-04-03T05:15:15.000Z,78.7
2023-04-03T05:16:31.000Z,78.3
2023-04-03T05:17:47.000Z,78.3
2023-04-03T05:19:04.000Z,78.4
2023-04-03T05:20:20.000Z,78.3
2023-04-03T05:21:36.000Z,78.2
2023-04-03T05:22:52.000Z,78.2
2023-04-03T05:24:09.249Z,78.4
2023-04-03T05:25:25.454Z,78.3
2023-04-03T05:26:41.000Z,78.1
2023-04-03T05:27:57.000Z,78.1
2023-04-03T05:29:14.173Z,78.3
2023-04-03T05:30:29.000Z,78.6
2023-04-03T05:31:45.000Z,78.6
2023-04-03T05:33:01.000Z,78.7
2023-04-03T05:34:17.000Z,78.5
2023-04-03T05:35:34.000Z,78.7
2023-04-03T05:36:50.000Z,78.7
2023-04-03T05:38:06.812Z,78.8
2023-04-03T05:39:23.047Z,78.7
2023-04-03T05:40:39.000Z,78.3
2023-04-03T05:41:55.000Z,78.4
2023-04-03T05:43:11.000Z,78.6
2023-04-03T05:44:27.000Z,78.5
2023-04-03T05:45:43.000Z,78.1
2023-04-03T05:46:59.487Z,77.9
2023-04-03T05:48:15.000Z,78
2023-04-03T05:49:31.000Z,77.8
2023-04-03T05:50:47.000Z,77.8
2023-04-03T05:52:04.411Z,77.2
2023-04-03T05:53:20.000Z,77.2
2023-04-03T05:54:36.000Z,77
2023-04-03T05:55:52.000Z,77
2023-04-03T05:57:09.000Z,76.7
2023-04-03T05:58:25.000Z,76.4
2023-04-03T05:59:41.000Z,75.7
2023-04-03T06:00:56.000Z,75.4
2023-04-03T06:02:12.338Z,75
2023-04-03T06:03:28.000Z,74.5
2023-04-03T06:04:44.000Z,74.1
2023-04-03T06:06:00.000Z,73.9
2023-04-03T06:07:17.000Z,73.7
2023-04-03T06:08:33.000Z,73.5
2023-04-03T06:09:49.000Z,73.3
2023-04-03T06:11:04.000Z,72.8
2023-04-03T06:12:19.000Z,72.5
2023-04-03T06:13:36.000Z,73
2023-04-03T06:14:52.000Z,72.8
2023-04-03T06:16:08.000Z,72.4
2023-04-03T06:17:25.180Z,72.3
2023-04-03T06:18:41.000Z,72.8
2023-04-03T06:19:57.000Z,72.9
2023-04-03T06:21:13.000Z,72.7
2023-04-03T06:22:29.000Z,71.6
2023-04-03T06:23:46.000Z,70.7
2023-04-03T06:25:02.000Z,70.7
2023-04-03T06:26:18.000Z,70.2
2023-04-03T06:27:34.000Z,70.2
2023-04-03T06:28:50.000Z,70.1
2023-04-03T06:30:06.000Z,70.1
2023-04-03T06:31:22.000Z,70.1
2023-04-03T06:32:39.001Z,70.5
2023-04-03T06:33:54.000Z,70.6
2023-04-03T06:35:11.000Z,69.5
2023-04-03T06:36:27.000Z,70.5
2023-04-03T06:37:43.000Z,69.7
2023-04-03T06:38:59.000Z,69.1
2023-04-03T06:40:16.401Z,67.5
2023-04-03T06:41:32.000Z,66.1
2023-04-03T06:42:48.000Z,64.8
2023-04-03T06:44:05.113Z,64.1
2023-04-03T06:45:20.000Z,63.8
2023-04-03T06:46:36.000Z,64.3
2023-04-03T06:47:51.826Z,64.2
2023-04-03T06:49:06.000Z,63.6
2023-04-03T06:50:22.000Z,63.2
2023-04-03T06:51:37.000Z,63.8
2023-04-03T06:52:53.000Z,64.1
2023-04-03T06:55:26.301Z,62.9
2023-04-03T06:56:42.534Z,62.8
2023-04-03T06:57:58.000Z,61.5
2023-04-03T06:59:14.000Z,62.5
2023-04-03T07:00:31.258Z,62.6
2023-04-03T07:01:47.000Z,62
2023-04-03T07:03:03.703Z,62
2023-04-03T07:04:19.000Z,62.8
2023-04-03T07:05:36.179Z,63.9
2023-04-03T07:06:52.408Z,63.1
2023-04-03T07:08:08.000Z,63.6
2023-04-03T07:09:23.000Z,61.8
2023-04-03T07:10:40.121Z,61.5
2023-04-03T07:11:56.000Z,60.6
2023-04-03T07:13:12.607Z,59.8
2023-04-03T07:14:28.000Z,59
2023-04-03T07:15:44.000Z,58.9
2023-04-03T07:17:01.290Z,59.3
2023-04-03T07:18:16.559Z,59
2023-04-03T07:19:31.000Z,58.3
2023-04-03T07:20:47.000Z,57.6
2023-04-03T07:22:04.000Z,58.2
2023-04-03T07:23:20.495Z,59
2023-04-03T07:24:35.000Z,59.1
2023-04-03T07:25:51.013Z,59.1
2023-04-03T07:27:06.000Z,56.8
2023-04-03T07:28:23.000Z,56.5
2023-04-03T07:29:39.000Z,57.3
2023-04-03T07:30:55.000Z,56.9
2023-04-03T07:32:12.175Z,57
2023-04-03T07:33:28.406Z,57.7
2023-04-03T07:34:44.000Z,57.7
2023-04-03T07:36:00.864Z,57.3
2023-04-03T07:37:16.000Z,57.2
2023-04-03T07:38:33.330Z,55.9
2023-04-03T07:39:49.746Z,53.8
2023-04-03T07:41:05.000Z,54.5
2023-04-03T07:42:20.000Z,53.1
2023-04-03T07:43:37.000Z,54.3
2023-04-03T07:44:53.000Z,55.1
2023-04-03T07:46:09.000Z,54.5
2023-04-03T07:47:25.988Z,54
2023-04-03T07:48:41.000Z,52.8
2023-04-03T07:49:58.000Z,52.1
2023-04-03T07:51:13.000Z,50.9
2023-04-03T07:52:28.000Z,50.7
2023-04-03T07:53:44.000Z,51.3
2023-04-03T07:55:00.000Z,51.4
2023-04-03T07:56:16.669Z,51.1
2023-04-03T07:57:32.000Z,50.5
2023-04-03T07:58:48.000Z,51.4
2023-04-03T08:00:05.000Z,51.3
2023-04-03T08:01:21.000Z,52.1
2023-04-03T08:02:36.000Z,50.9
2023-04-03T08:03:52.123Z,50.3
2023-04-03T08:05:08.000Z,50
2023-04-03T08:06:24.000Z,48.4
2023-04-03T08:07:40.000Z,48.1
2023-04-03T08:08:56.000Z,48.3
2023-04-03T08:10:13.000Z,48.9
2023-04-03T08:11:29.538Z,48.9
2023-04-03T08:12:45.000Z,48.5
2023-04-03T08:14:01.000Z,47.8
2023-04-03T08:15:17.000Z,46.5
2023-04-03T08:16:34.000Z,44.7
2023-04-03T08:17:50.000Z,45.4
2023-04-03T08:19:06.943Z,46.6
2023-04-03T08:20:21.000Z,46.1
2023-04-03T08:21:38.000Z,47.4
2023-04-03T08:22:54.000Z,48.7
2023-04-03T08:24:10.000Z,48
2023-04-03T08:25:26.000Z,46.4
2023-04-03T08:26:43.366Z,44.8
2023-04-03T08:27:59.000Z,43.6
2023-04-03T08:29:15.000Z,43.4
2023-04-03T08:30:31.000Z,43.9
2023-04-03T08:31:48.280Z,44.6
2023-04-03T08:33:04.521Z,44
2023-04-03T08:34:20.776Z,43.4
2023-04-03T08:35:36.990Z,41.9
2023-04-03T08:36:51.000Z,41.8
2023-04-03T08:38:08.000Z,42
2023-04-03T08:39:24.000Z,41.3
2023-04-03T08:40:40.000Z,41.6
2023-04-03T08:41:57.179Z,42.1
2023-04-03T08:43:13.000Z,41.2
2023-04-03T08:44:29.000Z,41.2
2023-04-03T08:45:45.000Z,40.7
2023-04-03T08:47:01.000Z,39.4
2023-04-03T08:48:18.000Z,40
2023-04-03T08:49:34.563Z,38.1
2023-04-03T08:50:50.000Z,39.2
2023-04-03T08:52:06.000Z,38.5
2023-04-03T08:53:22.000Z,39
2023-04-03T08:54:38.000Z,38.1
2023-04-03T08:55:54.000Z,37.6
2023-04-03T08:57:10.983Z,38
2023-04-03T08:58:26.000Z,37.5
2023-04-03T08:59:43.000Z,37.8
2023-04-03T09:00:59.000Z,36.3
2023-04-03T09:02:15.000Z,37.4
2023-04-03T09:03:32.127Z,36.9
2023-04-03T09:04:48.390Z,37
2023-04-03T09:06:04.000Z,38
2023-04-03T09:07:20.000Z,36.6
2023-04-03T09:08:36.000Z,37.1
2023-04-03T09:09:52.000Z,37.2
2023-04-03T09:11:08.000Z,36.8
2023-04-03T09:12:24.811Z,38.1
2023-04-03T09:13:41.024Z,36.9
2023-04-03T09:14:57.000Z,35
2023-04-03T09:16:13.000Z,37.3
2023-04-03T09:17:29.000Z,36.1
2023-04-03T09:18:45.000Z,37.3
2023-04-03T09:20:01.000Z,35.7
2023-04-03T09:21:18.000Z,35.2
2023-04-03T09:22:34.000Z,34.2
2023-04-03T09:23:50.000Z,33.9
2023-04-03T09:25:06.000Z,35
2023-04-03T09:27:38.000Z,35.4
2023-04-03T09:28:54.000Z,33.6
2023-04-03T09:30:11.062Z,34.5
2023-04-03T09:31:27.000Z,34.2
2023-04-03T09:32:43.000Z,33.7
2023-04-03T09:33:59.000Z,34.5
2023-04-03T09:35:16.026Z,34.5
2023-04-03T09:36:32.223Z,33.7
2023-04-03T09:37:48.000Z,35.1
2023-04-03T09:39:04.700Z,34.2
2023-04-03T09:40:20.000Z,33.8
2023-04-03T09:41:37.161Z,33.4
2023-04-03T09:42:52.436Z,31.6
2023-04-03T09:44:08.000Z,31.4
2023-04-03T09:45:24.000Z,31.5
2023-04-03T09:46:40.000Z,32.4
2023-04-03T09:47:57.000Z,33.9
2023-04-03T09:50:29.827Z,32.4
2023-04-03T09:51:45.000Z,32.5
2023-04-03T09:53:02.000Z,33
2023-04-03T09:54:18.000Z,32
2023-04-03T09:55:34.000Z,31.5
2023-04-03T09:56:50.000Z,31.9
2023-04-03T09:58:06.000Z,32.6
2023-04-03T10:00:38.000Z,30.1
2023-04-03T10:01:54.000Z,30.8
2023-04-03T10:03:10.000Z,30.6
2023-04-03T10:04:27.000Z,30
2023-04-03T10:05:43.644Z,30.4
2023-04-03T10:06:59.000Z,31.1
2023-04-03T10:08:15.000Z,30.6
2023-04-03T10:09:32.000Z,30.6
2023-04-03T10:10:48.000Z,29.8
2023-04-03T10:12:04.000Z,29.3
2023-04-03T10:13:21.029Z,30.4
2023-04-03T10:14:37.000Z,30.5
2023-04-03T10:15:52.000Z,30.5
2023-04-03T10:17:08.000Z,29.8
2023-04-03T10:18:24.000Z,29.6
2023-04-03T10:19:40.000Z,29.4
2023-04-03T10:20:57.438Z,28.6
2023-04-03T10:22:13.000Z,29.3
2023-04-03T10:23:29.000Z,31.3
2023-04-03T10:24:45.000Z,31.4
2023-04-03T10:26:02.000Z,30.5
2023-04-03T10:27:18.591Z,30.7
2023-04-03T10:28:34.862Z,30.3
2023-04-03T10:29:50.000Z,30
2023-04-03T10:31:07.000Z,31.6
2023-04-03T10:32:22.000Z,32.3
2023-04-03T10:33:38.795Z,32.5
2023-04-03T10:34:54.000Z,29.9
2023-04-03T10:36:11.264Z,31.4
2023-04-03T10:37:27.000Z,33.3
2023-04-03T10:38:43.713Z,31.7
2023-04-03T10:39:59.000Z,31.1
2023-04-03T10:41:15.000Z,31.6
2023-04-03T10:43:48.684Z,30.5
2023-04-03T10:45:04.000Z,30.9
2023-04-03T10:46:20.000Z,32.6
2023-04-03T10:47:37.000Z,33.8
2023-04-03T10:48:52.000Z,32.4
2023-04-03T10:50:07.000Z,31.7
2023-04-03T10:51:23.112Z,31
2023-04-03T10:52:39.000Z,30.1
2023-04-03T10:53:55.000Z,29.8
2023-04-03T10:55:11.823Z,31.1
2023-04-03T10:56:27.000Z,29
2023-04-03T10:57:43.299Z,29.4
2023-04-03T10:58:58.728Z,32.7
2023-04-03T11:00:14.798Z,31.8
2023-04-03T11:01:30.000Z,33.8
2023-04-03T11:02:47.000Z,33.1
2023-04-03T11:04:03.000Z,33.1
2023-04-03T11:05:19.000Z,31.6
2023-04-03T11:06:35.000Z,32.1
2023-04-03T11:07:51.000Z,31.1
2023-04-03T11:09:08.427Z,31
2023-04-03T11:11:40.000Z,32.2
2023-04-03T11:12:56.000Z,31.6
2023-04-03T11:14:13.363Z,30.9
2023-04-03T11:15:28.000Z,31.3
2023-04-03T11:16:44.000Z,33.9
2023-04-03T11:18:00.000Z,34.3
2023-04-03T11:19:17.306Z,34.8
2023-04-03T11:20:33.515Z,35
2023-04-03T11:21:49.759Z,33.9
2023-04-03T11:23:05.000Z,35.6
2023-04-03T11:24:22.239Z,34.9
2023-04-03T11:25:38.000Z,35.5
2023-04-03T11:26:54.000Z,34.7
2023-04-03T11:28:10.000Z,35.7
2023-04-03T11:29:27.161Z,36.2
2023-04-03T11:30:43.000Z,34.4
2023-04-03T11:31:58.000Z,35.3
2023-04-03T11:33:14.892Z,33.2
2023-04-03T11:34:30.000Z,35.9
2023-04-03T11:35:47.000Z,33.8
2023-04-03T11:37:03.000Z,35.3
2023-04-03T11:38:19.000Z,36.9
2023-04-03T11:39:35.000Z,37.2
2023-04-03T11:40:52.000Z,36.6
2023-04-03T11:42:08.000Z,36.7
2023-04-03T11:43:24.000Z,36.6
2023-04-03T11:44:40.000Z,34.2
2023-04-03T11:47:13.000Z,36.4
2023-04-03T11:48:28.000Z,36.7
2023-04-03T11:49:44.900Z,37
2023-04-03T11:51:00.000Z,35.1
2023-04-03T11:52:17.401Z,35.2
2023-04-03T11:53:33.000Z,34.4
2023-04-03T11:54:49.000Z,35
2023-04-03T11:56:05.000Z,34
2023-04-03T11:57:22.000Z,33
2023-04-03T11:58:38.000Z,33.5
2023-04-03T11:59:54.770Z,36
2023-04-03T12:01:10.000Z,35.6
2023-04-03T12:02:27.000Z,34.7
2023-04-03T12:03:43.000Z,36.3
2023-04-03T12:04:58.000Z,35.9
2023-04-03T12:06:14.000Z,35.4
2023-04-03T12:07:31.200Z,33.4
2023-04-03T12:08:47.457Z,35.5
2023-04-03T12:10:02.000Z,35.3
2023-04-03T12:11:18.000Z,36.9
2023-04-03T12:12:34.000Z,37.3
2023-04-03T12:13:51.000Z,37.9
2023-04-03T12:15:07.638Z,39.4
2023-04-03T12:16:23.000Z,38
2023-04-03T12:17:39.000Z,38.5
2023-04-03T12:18:56.000Z,39.3
2023-04-03T12:20:12.000Z,39.1
2023-04-03T12:21:28.764Z,38.3
2023-04-03T12:22:45.028Z,37.4
2023-04-03T12:25:17.000Z,38.4
2023-04-03T12:26:32.000Z,36.6
2023-04-03T12:27:48.000Z,37.4
2023-04-03T12:29:04.000Z,37.6
2023-04-03T12:30:21.000Z,37.9
2023-04-03T12:31:37.000Z,37
2023-04-03T12:32:53.000Z,36.2
2023-04-03T12:34:09.000Z,37.6
2023-04-03T12:35:26.000Z,36.1
2023-04-03T12:36:42.000Z,35
2023-04-03T12:39:14.000Z,36.8
2023-04-03T12:40:31.000Z,36.3
2023-04-03T12:41:47.000Z,35
2023-04-03T12:43:02.000Z,36.1
2023-04-03T12:44:18.000Z,36.6
2023-04-03T12:45:35.230Z,35.6
2023-04-03T12:46:51.000Z,34.7
2023-04-03T12:48:07.000Z,35
2023-04-03T12:49:23.000Z,34.4
2023-04-03T12:50:39.000Z,34.1
2023-04-03T12:51:56.000Z,34.3
2023-04-03T12:53:12.653Z,34
2023-04-03T12:54:28.000Z,35.9
2023-04-03T12:55:44.000Z,36.1
2023-04-03T12:57:01.613Z,35.9
2023-04-03T12:58:17.000Z,35.5
2023-04-03T12:59:32.872Z,34.9
2023-04-03T13:00:49.103Z,35.2
2023-04-03T13:02:05.000Z,35.7
2023-04-03T13:03:21.543Z,34.7
2023-04-03T13:04:37.000Z,34.8
2023-04-03T13:05:53.000Z,35.7
2023-04-03T13:07:09.000Z,36.6
2023-04-03T13:08:26.000Z,37.8
2023-04-03T13:09:42.000Z,39.4
2023-04-03T13:10:58.000Z,38.7
2023-04-03T13:12:14.000Z,37
2023-04-03T13:13:31.000Z,37
2023-04-03T13:16:03.000Z,38
2023-04-03T13:17:19.122Z,38.6
2023-04-03T13:18:35.000Z,38.5
2023-04-03T13:19:51.554Z,37.8
2023-04-03T13:21:07.000Z,36.9
2023-04-03T13:22:23.000Z,36.4
2023-04-03T13:23:40.000Z,39.2
2023-04-03T13:24:56.000Z,36.9
2023-04-03T13:26:12.000Z,36.5
2023-04-03T13:27:28.965Z,36.6
2023-04-03T13:28:44.000Z,37.6
2023-04-03T13:30:01.000Z,37.4
2023-04-03T13:31:17.698Z,37.1
2023-04-03T13:32:33.000Z,37.8
2023-04-03T13:33:48.000Z,37.8
2023-04-03T13:35:05.000Z,37.2
2023-04-03T13:36:21.634Z,37.2
2023-04-03T13:37:37.000Z,37.2
2023-04-03T13:38:54.094Z,37.3
2023-04-03T13:41:26.000Z,37.2
2023-04-03T13:42:42.000Z,38.5
2023-04-03T13:43:58.000Z,38.8
2023-04-03T13:45:15.000Z,39.4
2023-04-03T13:46:31.472Z,38.3
2023-04-03T13:47:47.000Z,39.4
2023-04-03T13:49:03.960Z,38.5
2023-04-03T13:50:18.000Z,38
2023-04-03T13:51:35.000Z,39.1
2023-04-03T13:52:51.657Z,38.1
2023-04-03T13:54:07.941Z,37.5
2023-04-03T13:55:23.000Z,37.5
2023-04-03T13:56:40.000Z,38.1
2023-04-03T13:57:56.000Z,38
2023-04-03T13:59:12.000Z,39.3
2023-04-03T14:00:28.000Z,39.3
2023-04-03T14:01:45.301Z,38.5
2023-04-03T14:03:01.000Z,36.6
2023-04-03T14:04:17.000Z,38
2023-04-03T14:05:33.983Z,38.5
2023-04-03T14:06:49.000Z,39.2
2023-04-03T14:08:05.000Z,38.7
2023-04-03T14:09:21.000Z,37.8
2023-04-03T14:10:37.000Z,39.5
2023-04-03T14:11:53.000Z,38.6
2023-04-03T14:13:10.000Z,38.8
2023-04-03T14:14:26.000Z,40.1
2023-04-03T14:15:42.000Z,40.9
2023-04-03T14:16:59.106Z,40.8
2023-04-03T14:18:15.000Z,41.3
2023-04-03T14:19:31.000Z,42.1
2023-04-03T14:20:47.000Z,41
2023-04-03T14:22:04.061Z,40.3
2023-04-03T14:23:19.000Z,41.1
2023-04-03T14:24:35.000Z,40.3
2023-04-03T14:25:51.000Z,40.4
2023-04-03T14:27:07.000Z,41.8
2023-04-03T14:28:23.000Z,41.8
2023-04-03T14:29:40.000Z,42.3
2023-04-03T14:32:12.000Z,40.9
2023-04-03T14:33:28.000Z,41.4
2023-04-03T14:34:45.415Z,42.5
2023-04-03T14:36:01.000Z,41
2023-04-03T14:37:17.871Z,39.4
2023-04-03T14:38:33.000Z,40.3
2023-04-03T14:39:49.000Z,40.9
2023-04-03T14:41:05.000Z,39.8
2023-04-03T14:42:21.819Z,41
2023-04-03T14:43:37.000Z,40.4
2023-04-03T14:44:54.000Z,39.8
2023-04-03T14:46:10.000Z,39.7
2023-04-03T14:47:26.000Z,39.3
2023-04-03T14:48:42.000Z,40.1
2023-04-03T14:49:59.207Z,38.7
2023-04-03T14:51:15.000Z,40
2023-04-03T14:52:31.000Z,39.8
2023-04-03T14:53:47.907Z,39.6
2023-04-03T14:55:03.000Z,38.5
2023-04-03T14:56:19.385Z,39.4
2023-04-03T14:57:35.000Z,39.5
2023-04-03T14:58:51.000Z,39.9
2023-04-03T15:00:08.084Z,40.1
2023-04-03T15:01:24.000Z,39.7
2023-04-03T15:02:40.000Z,41
2023-04-03T15:03:56.000Z,39.6
2023-04-03T15:05:12.000Z,40.9
2023-04-03T15:06:29.000Z,41.1
2023-04-03T15:07:45.000Z,41.3
2023-04-03T15:09:01.000Z,40.4
2023-04-03T15:10:17.000Z,40.1
2023-04-03T15:11:33.000Z,40.8
2023-04-03T15:12:49.000Z,40.7
2023-04-03T15:14:05.000Z,41.7
2023-04-03T15:15:21.000Z,40.8
2023-04-03T15:16:37.000Z,39.8
2023-04-03T15:17:54.000Z,41
2023-04-03T15:19:10.000Z,40.8
2023-04-03T15:20:26.000Z,41.2
2023-04-03T15:21:42.000Z,41.5
2023-04-03T15:22:59.000Z,41.5
2023-04-03T15:24:15.000Z,41.6
2023-04-03T15:25:31.000Z,42.1
2023-04-03T15:26:47.000Z,42.1
2023-04-03T15:28:03.000Z,42.5
2023-04-03T15:29:19.000Z,41.9
2023-04-03T15:30:35.000Z,42.2
2023-04-03T15:31:51.946Z,41.9
2023-04-03T15:33:07.000Z,41.9
2023-04-03T15:34:24.000Z,42.7
2023-04-03T15:35:40.000Z,42.3
2023-04-03T15:36:56.000Z,42.2
2023-04-03T15:38:12.000Z,43
2023-04-03T15:39:29.000Z,42.6
2023-04-03T15:40:45.000Z,42
2023-04-03T15:42:01.000Z,42.2
2023-04-03T15:43:18.060Z,42.4
2023-04-03T15:44:34.000Z,41.5
2023-04-03T15:45:49.000Z,42.2
2023-04-03T15:48:21.000Z,42.5
2023-04-03T15:49:38.253Z,42.4
2023-04-03T15:50:54.000Z,42.1
2023-04-03T15:52:10.000Z,42.2
2023-04-03T15:53:26.000Z,44
2023-04-03T15:54:42.000Z,42.8
2023-04-03T15:55:59.000Z,42.9
2023-04-03T15:57:15.000Z,43.6
2023-04-03T15:58:31.000Z,43.3
2023-04-03T15:59:47.000Z,42.6
2023-04-03T16:01:04.000Z,41.6
2023-04-03T16:02:19.000Z,42.5
2023-04-03T16:03:35.000Z,41.3
2023-04-03T16:04:51.000Z,41.3
2023-04-03T16:06:08.000Z,41.8
2023-04-03T16:07:24.000Z,42.1
2023-04-03T16:08:40.000Z,41.5
2023-04-03T16:09:56.000Z,42
2023-04-03T16:11:12.000Z,41.7
2023-04-03T16:12:29.000Z,41.6
2023-04-03T16:13:45.000Z,41.6
2023-04-03T16:15:01.935Z,41.7
2023-04-03T16:16:17.000Z,41.3
2023-04-03T16:17:34.000Z,41.3
2023-04-03T16:18:49.000Z,41.6
2023-04-03T16:20:05.000Z,41.9
2023-04-03T16:21:21.000Z,42.5
2023-04-03T16:22:38.000Z,42
2023-04-03T16:23:54.000Z,41.7
2023-04-03T16:25:09.000Z,42.2
2023-04-03T16:26:25.000Z,41.6
2023-04-03T16:27:42.000Z,42
2023-04-03T16:28:58.000Z,42.4
2023-04-03T16:30:14.000Z,42.7
2023-04-03T16:31:30.000Z,42.8
2023-04-03T16:32:46.000Z,43
2023-04-03T16:34:03.000Z,43.3
2023-04-03T16:35:19.000Z,43
2023-04-03T16:36:35.000Z,42.2
2023-04-03T16:39:08.000Z,42.7
2023-04-03T16:40:23.000Z,43.1
2023-04-03T16:41:38.000Z,42.6
2023-04-03T16:42:54.000Z,42.5
2023-04-03T16:44:10.000Z,43.2
2023-04-03T16:45:25.000Z,42.8
2023-04-03T16:46:41.000Z,43.2
2023-04-03T16:47:57.000Z,43.8
2023-04-03T16:49:14.000Z,43.1
2023-04-03T16:50:30.000Z,42.7
2023-04-03T16:51:46.000Z,43.1
2023-04-03T16:53:02.000Z,43.2
2023-04-03T16:54:19.000Z,43.3
2023-04-03T16:55:35.000Z,43.5
2023-04-03T16:56:51.000Z,43.1
2023-04-03T16:58:07.000Z,43.2
2023-04-03T16:59:23.000Z,43.2
2023-04-03T17:00:40.000Z,43.5
2023-04-03T17:01:55.000Z,43.6
2023-04-03T17:03:11.000Z,43.8
2023-04-03T17:04:28.150Z,43.8
2023-04-03T17:05:44.000Z,43.1
2023-04-03T17:07:00.628Z,42.4
2023-04-03T17:08:16.000Z,42.4
2023-04-03T17:09:32.000Z,43.1
2023-04-03T17:10:49.000Z,43.1
2023-04-03T17:12:05.000Z,43.4
2023-04-03T17:13:21.000Z,43.9
2023-04-03T17:14:37.000Z,45
2023-04-03T17:15:54.278Z,44.1
2023-04-03T17:17:10.000Z,44
2023-04-03T17:18:25.000Z,42.7
2023-04-03T17:19:41.000Z,43.1
2023-04-03T17:20:57.000Z,43.5